Time;durP1;ratioP1;P1;durP2;ratioP2;P2;SDS_P1;SDS_P2;PMS_P1;PMS_P2;Temp;Humidity;BMP_temperature;BMP_pressure;BME280_temperature;BME280_humidity;BME280_pressure;Samples;Min_cycle;Max_cycle;Signal;HPM_P1;HPM_P2
2020/12/16 00:00:55;;;;;;;91.38;34.63;;;7.70;95.20;;;;;;5001974;28;20042;-50
2020/12/16 00:03:21;;;;;;;302.08;42.58;;;7.70;95.20;;;;;;4983099;28;20212;-50
2020/12/16 00:06:06;;;;;;;266.63;41.00;;;7.70;95.30;;;;;;5001371;28;20050;-53
2020/12/16 00:08:32;;;;;;;252.40;40.38;;;7.70;95.30;;;;;;4999616;28;20042;-51
2020/12/16 00:10:59;;;;;;;361.25;43.38;;;7.80;95.40;;;;;;4994042;28;20439;-50
2020/12/16 00:13:25;;;;;;;359.30;43.42;;;7.80;95.40;;;;;;5013272;28;20038;-53
2020/12/16 00:15:51;;;;;;;417.98;45.55;;;7.70;95.40;;;;;;4991973;28;20092;-52
2020/12/16 00:18:37;;;;;;;293.27;40.42;;;7.70;95.40;;;;;;4995892;28;20129;-51
2020/12/16 00:21:03;;;;;;;220.18;39.78;;;7.80;95.50;;;;;;4994639;28;20034;-51
2020/12/16 00:23:30;;;;;;;199.15;39.20;;;7.80;95.30;;;;;;5002839;28;20500;-51
2020/12/16 00:25:56;;;;;;;279.92;39.10;;;7.80;95.40;;;;;;4994340;28;20117;-52
2020/12/16 00:28:22;;;;;;;263.92;41.15;;;7.80;95.50;;;;;;5000965;28;20816;-53
2020/12/16 00:30:49;;;;;;;263.08;39.90;;;7.80;95.40;;;;;;5005667;28;20070;-53
2020/12/16 00:33:17;;;;;;;368.45;43.72;;;7.80;95.40;;;;;;5015222;28;20034;-51
2020/12/16 00:35:45;;;;;;;248.65;42.10;;;7.90;95.50;;;;;;4997822;28;20030;-51
2020/12/16 00:38:12;;;;;;;500.40;48.05;;;7.80;95.40;;;;;;5001812;28;20414;-53
2020/12/16 00:40:39;;;;;;;169.73;37.33;;;7.80;95.50;;;;;;5004611;28;20301;-52
2020/12/16 00:43:05;;;;;;;133.10;35.88;;;7.90;95.50;;;;;;5002646;28;20072;-54
2020/12/16 00:45:32;;;;;;;185.20;38.58;;;7.90;95.50;;;;;;5000311;28;20134;-52
2020/12/16 00:48:18;;;;;;;283.80;40.38;;;7.90;95.80;;;;;;5004813;28;20401;-53
2020/12/16 00:50:44;;;;;;;146.07;37.38;;;7.90;95.60;;;;;;4998757;28;20137;-54
2020/12/16 00:53:10;;;;;;;118.63;35.85;;;7.90;95.50;;;;;;5006546;28;20053;-54
2020/12/16 00:55:37;;;;;;;241.13;40.47;;;7.90;95.50;;;;;;4994879;28;20049;-52
2020/12/16 00:58:03;;;;;;;228.82;39.80;;;7.90;95.60;;;;;;5007840;28;20387;-55
2020/12/16 01:00:29;;;;;;;259.88;40.38;;;8.00;95.60;;;;;;5006115;28;20053;-53
2020/12/16 01:02:56;;;;;;;204.23;37.78;;;8.00;95.50;;;;;;4993214;28;20103;-50
2020/12/16 01:05:42;;;;;;;149.05;38.53;;;8.00;95.50;;;;;;5000169;28;20046;-55
2020/12/16 01:08:07;;;;;;;228.57;38.53;;;8.00;95.50;;;;;;5002179;28;20495;-55
2020/12/16 01:10:34;;;;;;;348.08;41.88;;;8.00;95.60;;;;;;5004576;28;20049;-51
2020/12/16 01:13:01;;;;;;;152.23;37.15;;;8.00;95.60;;;;;;5002478;28;20403;-54
2020/12/16 01:15:26;;;;;;;156.40;39.85;;;8.00;95.60;;;;;;5003127;28;20244;-54
2020/12/16 01:18:12;;;;;;;179.18;39.35;;;8.00;95.60;;;;;;5005520;28;20049;-54
2020/12/16 01:20:38;;;;;;;231.18;40.22;;;8.10;95.70;;;;;;5001230;28;20050;-55
2020/12/16 01:23:03;;;;;;;126.80;36.72;;;8.10;95.70;;;;;;4991596;28;20046;-54
2020/12/16 01:25:29;;;;;;;110.38;35.40;;;8.10;95.60;;;;;;5008378;28;20041;-55
2020/12/16 01:27:59;;;;;;;166.45;38.70;;;8.20;95.60;;;;;;5013273;28;20099;-55
2020/12/16 01:30:44;;;;;;;140.35;35.70;;;8.10;95.50;;;;;;5002953;28;20111;-50
2020/12/16 01:33:10;;;;;;;107.38;32.97;;;8.10;95.60;;;;;;5012522;28;20119;-53
2020/12/16 01:35:35;;;;;;;109.53;35.78;;;8.10;95.60;;;;;;5011962;28;20072;-50
2020/12/16 01:38:01;;;;;;;126.10;34.88;;;8.10;95.50;;;;;;4997164;28;20091;-50
2020/12/16 01:40:27;;;;;;;134.45;36.50;;;8.10;95.60;;;;;;4995332;28;20402;-52
2020/12/16 01:42:53;;;;;;;127.43;36.53;;;8.20;95.60;;;;;;4996961;28;20502;-50
2020/12/16 01:45:21;;;;;;;103.47;34.33;;;8.20;95.50;;;;;;5006040;28;20108;-50
2020/12/16 01:47:48;;;;;;;93.80;32.85;;;8.20;95.50;;;;;;4996032;28;20042;-52
2020/12/16 01:50:15;;;;;;;106.85;33.25;;;8.30;95.30;;;;;;4991777;28;20053;-52
2020/12/16 01:53:01;;;;;;;104.90;34.53;;;8.20;95.40;;;;;;4991112;28;20046;-53
2020/12/16 01:55:28;;;;;;;110.82;34.45;;;8.20;95.50;;;;;;5001714;28;20050;-53
2020/12/16 01:57:59;;;;;;;142.95;35.97;;;8.30;95.40;;;;;;5009246;28;20453;-50
2020/12/16 02:00:47;;;;;;;98.70;33.92;;;8.20;95.60;;;;;;4994985;28;20042;-53
2020/12/16 02:03:20;;;;;;;116.10;35.00;;;8.20;95.40;;;;;;4995261;28;20050;-51
2020/12/16 02:05:51;;;;;;;114.65;33.92;;;8.30;95.50;;;;;;4995793;28;20467;-53
2020/12/16 02:08:38;;;;;;;83.15;31.73;;;8.20;95.40;;;;;;5004810;28;20042;-54
2020/12/16 02:11:04;;;;;;;76.90;29.60;;;8.20;95.30;;;;;;5013784;28;20033;-54
2020/12/16 02:13:52;;;;;;;107.05;30.27;;;8.20;95.40;;;;;;4989631;28;20136;-50
2020/12/16 02:16:20;;;;;;;88.15;29.58;;;8.20;95.30;;;;;;5000964;28;20043;-52
2020/12/16 02:18:47;;;;;;;87.78;28.25;;;8.20;95.40;;;;;;5001896;28;20041;-53
2020/12/16 02:21:13;;;;;;;88.32;30.08;;;8.20;95.30;;;;;;5018585;28;21446;-50
2020/12/16 02:24:20;;;;;;;100.55;33.17;;;8.20;95.30;;;;;;5010169;28;20076;-50
2020/12/16 02:27:07;;;;;;;89.00;31.02;;;8.20;95.40;;;;;;5017984;28;20046;-50
2020/12/16 02:29:33;;;;;;;132.05;34.72;;;8.20;95.40;;;;;;5011108;28;20506;-51
2020/12/16 02:32:22;;;;;;;121.13;33.30;;;8.20;95.40;;;;;;5003185;28;20557;-51
2020/12/16 02:34:48;;;;;;;131.13;33.88;;;8.20;95.30;;;;;;5007035;28;20080;-53
2020/12/16 02:37:35;;;;;;;115.95;31.90;;;8.20;95.40;;;;;;5005725;28;20038;-56
2020/12/16 02:40:01;;;;;;;90.22;28.50;;;8.20;95.30;;;;;;5001463;28;20058;-54
2020/12/16 02:42:28;;;;;;;71.97;26.73;;;8.20;95.20;;;;;;4995793;28;20037;-51
2020/12/16 02:44:57;;;;;;;91.15;27.20;;;8.10;95.10;;;;;;4998993;28;20085;-54
2020/12/16 02:47:43;;;;;;;137.95;31.25;;;8.10;95.10;;;;;;5008600;28;20053;-50
2020/12/16 02:50:09;;;;;;;97.88;28.73;;;8.10;95.00;;;;;;5007187;28;20495;-50
2020/12/16 02:52:35;;;;;;;106.22;27.25;;;8.10;95.10;;;;;;5004777;28;20550;-50
2020/12/16 02:55:21;;;;;;;103.90;27.25;;;8.10;95.10;;;;;;4994726;28;20081;-50
2020/12/16 02:57:46;;;;;;;123.25;28.17;;;8.10;95.00;;;;;;5002755;28;20077;-51
2020/12/16 03:00:12;;;;;;;100.72;27.35;;;8.00;95.00;;;;;;5004364;28;20056;-52
2020/12/16 03:02:38;;;;;;;104.60;26.27;;;8.00;95.10;;;;;;5004700;28;20044;-55
2020/12/16 03:05:04;;;;;;;71.60;24.77;;;7.90;95.10;;;;;;5002974;28;20064;-50
2020/12/16 03:07:50;;;;;;;77.35;23.67;;;7.90;95.20;;;;;;5006696;28;20041;-50
2020/12/16 03:10:37;;;;;;;109.38;27.10;;;7.90;95.20;;;;;;5007342;28;20053;-50
2020/12/16 03:13:03;;;;;;;120.38;25.17;;;8.00;95.10;;;;;;5001913;28;20400;-54
2020/12/16 03:15:50;;;;;;;82.85;26.08;;;8.00;94.90;;;;;;5002791;28;20054;-51
2020/12/16 03:18:15;;;;;;;125.97;26.60;;;7.90;95.10;;;;;;4994600;28;20030;-52
2020/12/16 03:21:01;;;;;;;130.80;26.85;;;7.90;95.30;;;;;;5000138;28;20043;-53
2020/12/16 03:23:47;;;;;;;91.50;24.45;;;7.80;95.30;;;;;;5005516;28;20176;-53
2020/12/16 03:26:12;;;;;;;129.68;27.55;;;7.90;95.30;;;;;;4997526;28;20565;-53
2020/12/16 03:28:58;;;;;;;124.13;26.65;;;7.80;95.30;;;;;;5008065;28;20124;-51
2020/12/16 03:31:44;;;;;;;127.47;25.10;;;7.90;95.60;;;;;;5009067;28;20074;-52
2020/12/16 03:34:09;;;;;;;111.38;27.15;;;7.80;95.40;;;;;;5002395;28;20093;-51
2020/12/16 03:36:55;;;;;;;100.72;26.05;;;7.80;95.30;;;;;;4998886;28;20124;-54
2020/12/16 03:39:21;;;;;;;75.07;24.80;;;7.80;95.40;;;;;;4992182;28;20057;-51
2020/12/16 03:41:49;;;;;;;82.07;25.25;;;7.70;95.50;;;;;;5002934;28;20054;-51
2020/12/16 03:44:15;;;;;;;109.13;26.88;;;7.70;95.50;;;;;;5006692;28;20037;-50
2020/12/16 03:47:01;;;;;;;149.80;29.02;;;7.80;95.70;;;;;;5008401;28;20052;-51
2020/12/16 03:49:46;;;;;;;147.75;28.23;;;7.90;95.50;;;;;;4993259;28;20044;-53
2020/12/16 03:52:12;;;;;;;109.13;26.83;;;7.90;95.50;;;;;;4996501;28;20050;-51
2020/12/16 03:54:38;;;;;;;173.77;29.15;;;7.90;95.40;;;;;;5004900;28;20041;-53
2020/12/16 03:57:04;;;;;;;102.35;26.98;;;7.90;95.50;;;;;;4998614;28;20050;-51
2020/12/16 03:59:30;;;;;;;112.70;26.50;;;7.80;95.50;;;;;;4985030;28;20046;-53
2020/12/16 04:01:57;;;;;;;108.55;26.70;;;7.80;95.60;;;;;;4997814;28;20172;-54
2020/12/16 04:04:23;;;;;;;154.90;28.75;;;7.80;95.90;;;;;;5003597;28;20045;-51
2020/12/16 04:06:54;;;;;;;133.63;27.73;;;7.80;95.90;;;;;;5020893;28;20038;-51
2020/12/16 04:09:40;;;;;;;129.35;28.88;;;7.90;95.80;;;;;;5001374;28;20038;-50
2020/12/16 04:12:06;;;;;;;99.43;26.13;;;7.90;95.70;;;;;;5012194;28;20053;-52
2020/12/16 04:14:32;;;;;;;106.57;26.63;;;7.80;95.80;;;;;;5014248;28;20495;-50
2020/12/16 04:16:59;;;;;;;179.02;30.02;;;7.90;95.80;;;;;;4992479;28;20042;-51
2020/12/16 04:19:44;;;;;;;97.32;26.92;;;7.90;95.80;;;;;;4980158;28;20043;-51
2020/12/16 04:22:30;;;;;;;113.40;28.30;;;8.00;95.70;;;;;;5005336;28;20050;-50
2020/12/16 04:25:16;;;;;;;98.60;26.95;;;8.00;95.70;;;;;;5004136;28;20374;-50
2020/12/16 04:27:42;;;;;;;96.90;25.17;;;8.10;95.40;;;;;;5005347;28;20050;-51
2020/12/16 04:30:08;;;;;;;90.32;25.05;;;8.10;95.40;;;;;;4996897;28;20411;-50
2020/12/16 04:32:35;;;;;;;110.50;26.17;;;8.10;95.40;;;;;;4998533;28;20044;-53
2020/12/16 04:35:02;;;;;;;97.18;26.70;;;8.10;95.30;;;;;;5009978;28;20098;-55
2020/12/16 04:37:48;;;;;;;90.32;24.73;;;8.10;95.20;;;;;;5006366;28;20046;-53
2020/12/16 04:40:34;;;;;;;121.75;25.58;;;8.00;95.50;;;;;;5004355;28;20053;-56
2020/12/16 04:43:01;;;;;;;117.65;27.05;;;8.10;95.30;;;;;;5000448;28;20137;-53
2020/12/16 04:45:49;;;;;;;131.20;27.45;;;8.00;95.40;;;;;;5015999;28;20042;-55
2020/12/16 04:48:15;;;;;;;143.32;28.75;;;8.10;95.40;;;;;;5015712;28;20410;-56
2020/12/16 04:50:43;;;;;;;141.00;28.48;;;8.00;95.30;;;;;;5011403;28;20034;-56
2020/12/16 04:53:15;;;;;;;126.90;28.92;;;8.00;95.40;;;;;;5013297;28;20045;-53
2020/12/16 04:55:48;;;;;;;166.57;30.17;;;7.90;95.50;;;;;;5006272;28;20038;-55
2020/12/16 04:58:34;;;;;;;94.15;26.67;;;8.00;95.50;;;;;;5007130;28;20498;-50
2020/12/16 05:01:01;;;;;;;89.63;25.10;;;8.00;95.60;;;;;;5007708;28;20141;-56
2020/12/16 05:03:28;;;;;;;117.70;25.88;;;8.00;95.40;;;;;;5002998;28;20137;-52
2020/12/16 05:05:54;;;;;;;85.07;24.92;;;8.10;95.50;;;;;;4996247;28;20053;-50
2020/12/16 05:08:19;;;;;;;79.47;22.30;;;8.10;95.30;;;;;;5001083;28;20511;-51
2020/12/16 05:10:48;;;;;;;71.13;20.67;;;8.00;95.40;;;;;;5008145;28;20039;-51
2020/12/16 05:13:21;;;;;;;79.43;22.15;;;8.00;95.30;;;;;;5011176;28;20038;-51
2020/12/16 05:15:49;;;;;;;98.43;23.40;;;8.00;95.30;;;;;;4999591;28;20034;-51
2020/12/16 05:18:20;;;;;;;113.55;24.15;;;8.00;95.30;;;;;;5002857;28;20050;-53
2020/12/16 05:20:49;;;;;;;163.43;27.02;;;8.00;95.40;;;;;;4997571;28;20090;-52
2020/12/16 05:23:17;;;;;;;99.88;26.05;;;7.90;95.40;;;;;;5001794;28;20491;-50
2020/12/16 05:26:04;;;;;;;65.35;19.55;;;7.90;95.60;;;;;;5001894;28;20061;-53
2020/12/16 05:28:50;;;;;;;56.28;20.45;;;8.10;95.30;;;;;;5001871;28;20081;-49
2020/12/16 05:31:16;;;;;;;105.68;22.83;;;8.10;95.00;;;;;;5013817;28;20046;-53
2020/12/16 05:34:01;;;;;;;93.97;23.90;;;8.00;95.20;;;;;;4996676;28;20446;-51
2020/12/16 05:36:28;;;;;;;83.93;21.77;;;7.90;95.40;;;;;;4998410;28;20075;-54
2020/12/16 05:38:55;;;;;;;62.85;22.45;;;8.00;95.50;;;;;;4995643;28;20047;-56
2020/12/16 05:41:41;;;;;;;109.55;25.23;;;8.00;95.40;;;;;;5007115;28;20538;-56
2020/12/16 05:44:24;;;;;;;85.78;24.38;;;7.90;95.40;;;;;;5001451;28;20481;-57
2020/12/16 05:46:51;;;;;;;73.35;25.13;;;7.90;95.60;;;;;;5003439;28;20093;-52
2020/12/16 05:49:30;;;;;;;73.38;24.58;;;8.00;95.50;;;;;;4995039;28;20038;-53
2020/12/16 05:52:04;;;;;;;71.30;25.40;;;8.00;95.60;;;;;;4995259;28;20042;-56
2020/12/16 05:54:31;;;;;;;67.93;25.33;;;8.00;95.50;;;;;;5006247;28;20038;-56
2020/12/16 05:57:24;;;;;;;69.63;24.75;;;8.00;95.50;;;;;;5001688;28;20109;-54
2020/12/16 05:59:59;;;;;;;71.90;25.48;;;8.00;95.50;;;;;;4994602;28;20046;-55
2020/12/16 06:02:32;;;;;;;70.88;26.88;;;8.00;95.40;;;;;;5010934;28;20038;-56
2020/12/16 06:04:58;;;;;;;76.93;26.42;;;8.00;95.40;;;;;;5014407;28;20122;-55
2020/12/16 06:07:26;;;;;;;71.05;27.88;;;8.00;95.50;;;;;;4998998;28;20109;-56
2020/12/16 06:09:52;;;;;;;68.90;26.02;;;8.00;95.50;;;;;;5005025;28;20061;-54
2020/12/16 06:12:18;;;;;;;77.53;27.65;;;8.00;95.50;;;;;;4997432;28;20034;-54
2020/12/16 06:14:47;;;;;;;90.07;28.65;;;8.00;95.50;;;;;;4996720;28;20037;-53
2020/12/16 06:17:13;;;;;;;71.63;28.63;;;8.00;95.60;;;;;;4997751;28;20038;-56
2020/12/16 06:20:00;;;;;;;79.90;28.38;;;8.20;95.30;;;;;;5005679;28;20514;-53
2020/12/16 06:22:47;;;;;;;74.30;28.85;;;8.10;95.30;;;;;;4993121;28;20133;-53
2020/12/16 06:25:15;;;;;;;78.35;31.30;;;8.10;95.30;;;;;;4996952;28;20070;-52
2020/12/16 06:27:48;;;;;;;80.63;31.38;;;8.00;95.30;;;;;;4995131;28;20162;-52
2020/12/16 06:30:25;;;;;;;78.60;30.95;;;8.00;95.50;;;;;;4998839;28;20070;-55
2020/12/16 06:33:05;;;;;;;81.25;31.00;;;8.00;95.50;;;;;;4998656;28;20378;-56
2020/12/16 06:35:31;;;;;;;83.47;32.53;;;8.00;95.50;;;;;;5002565;28;20068;-57
2020/12/16 06:38:22;;;;;;;77.70;33.10;;;8.00;95.60;;;;;;5001506;28;20053;-54
2020/12/16 06:41:30;;;;;;;81.45;34.13;;;8.00;95.50;;;;;;4999074;28;20530;-56
2020/12/16 06:44:07;;;;;;;77.95;33.67;;;8.00;95.50;;;;;;4998243;28;20049;-56
2020/12/16 06:46:33;;;;;;;71.20;33.03;;;8.00;95.50;;;;;;5009162;28;20411;-53
2020/12/16 06:49:27;;;;;;;92.25;34.72;;;8.00;95.50;;;;;;5001414;28;20499;-55
2020/12/16 06:51:56;;;;;;;89.53;35.95;;;8.00;95.50;;;;;;5002031;28;20033;-55
2020/12/16 06:54:52;;;;;;;79.18;34.42;;;8.00;95.50;;;;;;5007677;28;20104;-52
2020/12/16 06:57:46;;;;;;;75.55;34.03;;;8.10;95.40;;;;;;5000962;28;20133;-53
2020/12/16 07:00:33;;;;;;;75.88;35.45;;;8.20;95.10;;;;;;5002248;28;20145;-55
2020/12/16 07:03:30;;;;;;;96.97;37.58;;;8.10;95.10;;;;;;5003072;28;20042;-51
2020/12/16 07:06:29;;;;;;;84.45;35.60;;;8.10;95.30;;;;;;5008282;28;20129;-55
2020/12/16 07:09:19;;;;;;;85.20;37.97;;;8.10;95.40;;;;;;5014605;28;20046;-57
2020/12/16 07:11:53;;;;;;;84.65;37.45;;;8.10;95.50;;;;;;5006784;28;20410;-56
2020/12/16 07:14:33;;;;;;;84.70;37.20;;;8.10;95.50;;;;;;4998353;28;20049;-55
2020/12/16 07:17:08;;;;;;;79.60;36.58;;;8.10;95.40;;;;;;4996642;28;20042;-56
2020/12/16 07:19:37;;;;;;;98.25;38.33;;;8.10;95.40;;;;;;4997161;28;20472;-55
2020/12/16 07:22:17;;;;;;;87.68;38.45;;;8.10;95.30;;;;;;4997184;28;20125;-57
2020/12/16 07:24:50;;;;;;;83.68;35.42;;;8.00;95.40;;;;;;4996732;28;20038;-55
2020/12/16 07:27:36;;;;;;;71.35;36.85;;;8.10;95.30;;;;;;4998923;28;20044;-55
2020/12/16 07:30:02;;;;;;;87.97;37.33;;;8.10;95.20;;;;;;5013324;28;20129;-55
2020/12/16 07:32:48;;;;;;;91.68;37.95;;;8.10;95.30;;;;;;4996447;28;20060;-54
2020/12/16 07:35:49;;;;;;;94.50;39.22;;;8.10;95.30;;;;;;4992294;28;20042;-54
2020/12/16 07:38:37;;;;;;;93.73;37.83;;;8.10;95.30;;;;;;4991567;28;20058;-57
2020/12/16 07:41:30;;;;;;;82.80;36.78;;;8.10;95.30;;;;;;4992981;28;20046;-57
2020/12/16 07:44:16;;;;;;;69.53;34.10;;;8.10;95.10;;;;;;4996768;28;20053;-57
2020/12/16 07:46:42;;;;;;;68.70;33.85;;;8.10;95.10;;;;;;5002892;28;20160;-57
2020/12/16 07:49:12;;;;;;;74.32;34.88;;;8.10;95.20;;;;;;4994872;28;20125;-57
2020/12/16 07:51:38;;;;;;;81.72;36.85;;;8.10;95.20;;;;;;4993969;28;20038;-57
2020/12/16 07:54:04;;;;;;;75.50;36.00;;;8.10;95.30;;;;;;4998158;28;20042;-57
2020/12/16 07:56:30;;;;;;;80.07;35.50;;;8.10;95.30;;;;;;4999497;28;20566;-56
2020/12/16 07:58:56;;;;;;;77.40;35.85;;;8.10;95.20;;;;;;4996838;28;20053;-53
2020/12/16 08:01:22;;;;;;;81.03;36.97;;;8.10;95.10;;;;;;4993448;28;20046;-54
2020/12/16 08:03:48;;;;;;;88.00;37.85;;;8.10;95.20;;;;;;5002805;28;20029;-55
2020/12/16 08:06:33;;;;;;;94.75;39.05;;;8.10;95.30;;;;;;5011050;28;20128;-51
2020/12/16 08:09:22;;;;;;;101.03;38.80;;;8.10;95.30;;;;;;4998464;28;20125;-52
2020/12/16 08:12:11;;;;;;;94.65;37.95;;;8.10;95.30;;;;;;4993739;28;20062;-54
2020/12/16 08:14:39;;;;;;;96.88;38.08;;;8.20;95.40;;;;;;4993802;28;20606;-54
2020/12/16 08:17:26;;;;;;;98.85;39.42;;;8.20;95.10;;;;;;4996136;28;20038;-54
2020/12/16 08:19:51;;;;;;;102.55;40.00;;;8.20;95.10;;;;;;5003868;28;20061;-51
2020/12/16 08:22:18;;;;;;;101.43;40.30;;;8.10;95.10;;;;;;5000891;28;20112;-50
2020/12/16 08:24:59;;;;;;;111.93;39.72;;;8.20;95.10;;;;;;5001390;28;20042;-51
2020/12/16 08:27:24;;;;;;;102.28;36.53;;;8.10;95.10;;;;;;5003958;28;20068;-54
2020/12/16 08:29:52;;;;;;;111.72;38.45;;;8.10;94.90;;;;;;5000399;28;20041;-53
2020/12/16 08:32:24;;;;;;;140.13;39.17;;;8.10;94.80;;;;;;5003665;28;20053;-50
2020/12/16 08:34:51;;;;;;;142.40;41.28;;;8.10;95.10;;;;;;4996794;28;20042;-51
2020/12/16 08:37:19;;;;;;;129.30;42.05;;;8.00;95.20;;;;;;4991887;28;20448;-52
2020/12/16 08:40:05;;;;;;;105.07;37.42;;;8.00;95.20;;;;;;5009745;28;20137;-54
2020/12/16 08:42:50;;;;;;;133.82;39.78;;;8.10;95.00;;;;;;4991474;28;20100;-53
2020/12/16 08:45:36;;;;;;;106.53;37.67;;;8.10;95.00;;;;;;4998926;28;20475;-51
2020/12/16 08:48:21;;;;;;;135.55;40.55;;;8.00;95.10;;;;;;4993413;28;20057;-53
2020/12/16 08:50:47;;;;;;;131.77;43.13;;;8.00;95.20;;;;;;4996468;28;20048;-51
2020/12/16 08:53:13;;;;;;;119.53;42.35;;;8.10;95.30;;;;;;5001528;28;20089;-53
2020/12/16 08:55:38;;;;;;;144.93;46.38;;;8.10;95.10;;;;;;4994800;28;20065;-51
2020/12/16 08:58:24;;;;;;;121.32;45.08;;;8.10;95.10;;;;;;4996729;28;20038;-52
2020/12/16 09:01:10;;;;;;;120.68;46.38;;;8.10;95.30;;;;;;5000183;28;20062;-53
2020/12/16 09:03:56;;;;;;;123.82;45.65;;;8.20;95.10;;;;;;4998798;28;20157;-51
2020/12/16 09:06:21;;;;;;;129.25;45.70;;;8.20;95.00;;;;;;5002311;28;20564;-52
2020/12/16 09:08:48;;;;;;;143.77;46.35;;;8.20;95.00;;;;;;5002044;28;20077;-53
2020/12/16 09:11:34;;;;;;;142.60;45.80;;;8.30;94.90;;;;;;5004565;28;20121;-51
2020/12/16 09:13:59;;;;;;;121.50;45.55;;;8.20;95.00;;;;;;5006548;28;20129;-53
2020/12/16 09:16:26;;;;;;;138.63;49.50;;;8.20;95.00;;;;;;4996690;28;20396;-51
2020/12/16 09:19:23;;;;;;;133.82;47.58;;;8.20;95.00;;;;;;4996768;28;20140;-53
2020/12/16 09:21:50;;;;;;;135.15;46.17;;;8.20;95.10;;;;;;4995699;28;20487;-56
2020/12/16 09:24:36;;;;;;;122.32;44.70;;;8.20;95.20;;;;;;4995674;28;20128;-52
2020/12/16 09:27:07;;;;;;;128.65;44.13;;;8.30;95.00;;;;;;4996765;28;20447;-55
2020/12/16 09:29:33;;;;;;;132.75;42.33;;;8.30;94.90;;;;;;5004365;28;20133;-54
2020/12/16 09:32:08;;;;;;;123.20;44.67;;;8.30;94.90;;;;;;5004634;28;20121;-52
2020/12/16 09:34:43;;;;;;;142.90;50.78;;;8.20;94.70;;;;;;5008283;28;20488;-52
2020/12/16 09:37:21;;;;;;;135.05;44.53;;;8.20;94.80;;;;;;5000871;28;20038;-52
2020/12/16 09:39:47;;;;;;;124.40;45.67;;;8.10;95.00;;;;;;5012721;28;20046;-52
2020/12/16 09:42:19;;;;;;;148.43;48.30;;;8.20;95.00;;;;;;5001952;28;20407;-52
2020/12/16 09:44:47;;;;;;;139.17;47.07;;;8.10;95.10;;;;;;5006850;28;20376;-53
2020/12/16 09:47:26;;;;;;;143.35;49.25;;;8.20;95.00;;;;;;4994919;28;20090;-52
2020/12/16 09:50:04;;;;;;;137.13;49.33;;;8.20;94.90;;;;;;5005946;28;20077;-56
2020/12/16 09:52:31;;;;;;;137.20;48.10;;;8.20;94.90;;;;;;4995071;28;20547;-52
2020/12/16 09:55:21;;;;;;;126.80;47.35;;;8.20;94.80;;;;;;5008836;28;20050;-52
2020/12/16 09:58:10;;;;;;;112.53;45.78;;;8.20;94.80;;;;;;5003011;28;20045;-52
2020/12/16 10:00:37;;;;;;;127.38;47.38;;;8.20;94.90;;;;;;5008393;28;20045;-51
2020/12/16 10:03:06;;;;;;;127.85;48.00;;;8.20;94.90;;;;;;5004351;28;20073;-51
2020/12/16 10:05:36;;;;;;;130.82;49.03;;;8.20;94.90;;;;;;4997896;28;20046;-54
2020/12/16 10:08:22;;;;;;;134.10;48.53;;;8.20;95.10;;;;;;5006706;28;20077;-54
2020/12/16 10:11:14;;;;;;;101.88;43.60;;;8.20;95.20;;;;;;5008906;28;20083;-55
2020/12/16 10:13:41;;;;;;;;;;;8.30;94.70;;;;;;5012150;28;20049;-53
2020/12/16 10:16:08;;;;;;;113.57;46.42;;;8.30;94.60;;;;;;4994294;28;20267;-52
2020/12/16 10:18:33;;;;;;;115.22;47.42;;;8.20;94.80;;;;;;4997727;28;20447;-55
2020/12/16 10:20:59;;;;;;;116.22;47.40;;;8.20;94.90;;;;;;4993123;28;20056;-55
2020/12/16 10:23:25;;;;;;;116.45;46.58;;;8.20;95.00;;;;;;5007972;28;20057;-54
2020/12/16 10:25:51;;;;;;;123.88;48.90;;;8.20;95.00;;;;;;5005453;28;20042;-55
2020/12/16 10:28:19;;;;;;;101.25;44.45;;;8.30;95.00;;;;;;5009120;28;20091;-55
2020/12/16 10:30:44;;;;;;;98.97;43.65;;;8.40;94.90;;;;;;5004606;28;20516;-52
2020/12/16 10:33:30;;;;;;;91.47;42.53;;;8.40;94.70;;;;;;5002704;28;20511;-53
2020/12/16 10:35:55;;;;;;;91.32;43.67;;;8.40;94.50;;;;;;4993891;28;20069;-53
2020/12/16 10:38:21;;;;;;;89.57;43.58;;;8.30;94.60;;;;;;4995616;28;20526;-54
2020/12/16 10:40:47;;;;;;;86.28;42.33;;;8.40;94.70;;;;;;5002056;28;20069;-55
2020/12/16 10:43:13;;;;;;;88.90;42.50;;;8.50;94.40;;;;;;4996601;28;20042;-55
2020/12/16 10:45:38;;;;;;;97.65;45.40;;;8.50;94.20;;;;;;5001664;28;20042;-54
2020/12/16 10:48:05;;;;;;;91.63;44.92;;;8.40;94.40;;;;;;4996701;28;20117;-55
2020/12/16 10:50:30;;;;;;;89.07;44.97;;;8.40;94.40;;;;;;4995547;28;20133;-52
2020/12/16 10:53:16;;;;;;;81.53;41.42;;;8.40;94.30;;;;;;4998762;28;20045;-54
2020/12/16 10:55:42;;;;;;;87.00;42.22;;;8.50;94.10;;;;;;4997681;28;20503;-54
2020/12/16 10:58:07;;;;;;;82.10;40.20;;;8.50;94.30;;;;;;4997102;28;20046;-54
2020/12/16 11:00:33;;;;;;;84.88;41.38;;;8.60;94.10;;;;;;5000889;28;20038;-54
2020/12/16 11:02:58;;;;;;;75.15;38.90;;;8.60;94.20;;;;;;5004591;28;20141;-51
2020/12/16 11:05:24;;;;;;;80.10;41.25;;;8.50;94.40;;;;;;4998163;28;20041;-54
2020/12/16 11:07:50;;;;;;;69.65;36.92;;;8.60;94.50;;;;;;4999173;28;20125;-54
2020/12/16 11:10:15;;;;;;;70.43;37.03;;;8.60;94.40;;;;;;4999435;28;20315;-53
2020/12/16 11:12:41;;;;;;;71.43;36.97;;;8.70;94.20;;;;;;5002478;28;20045;-53
2020/12/16 11:15:26;;;;;;;66.70;34.53;;;8.70;94.20;;;;;;4996990;28;20129;-54
2020/12/16 11:18:12;;;;;;;67.68;34.30;;;8.70;94.10;;;;;;5004481;28;20388;-57
2020/12/16 11:20:37;;;;;;;61.80;33.03;;;8.80;94.00;;;;;;5002447;28;20080;-55
2020/12/16 11:23:03;;;;;;;60.28;33.58;;;8.70;94.00;;;;;;5004245;28;20057;-55
2020/12/16 11:25:49;;;;;;;61.50;31.60;;;8.80;94.20;;;;;;4998475;28;20088;-54
2020/12/16 11:28:15;;;;;;;56.58;29.88;;;8.80;94.00;;;;;;4998097;28;20066;-54
2020/12/16 11:30:41;;;;;;;52.92;30.17;;;8.90;93.80;;;;;;5000028;28;20422;-54
2020/12/16 11:33:06;;;;;;;52.70;28.65;;;8.90;93.80;;;;;;4996480;28;20051;-56
2020/12/16 11:35:52;;;;;;;50.88;28.65;;;8.90;93.70;;;;;;4993270;28;20045;-56
2020/12/16 11:38:17;;;;;;;47.15;26.60;;;8.90;93.80;;;;;;4993396;28;20117;-54
2020/12/16 11:40:43;;;;;;;51.47;27.92;;;8.90;93.70;;;;;;4993371;28;20038;-56
2020/12/16 11:43:28;;;;;;;47.30;27.52;;;9.00;93.70;;;;;;4995851;28;20789;-55
2020/12/16 11:45:54;;;;;;;53.03;30.08;;;8.90;93.90;;;;;;4994161;28;20080;-54
2020/12/16 11:48:20;;;;;;;40.65;24.67;;;9.00;93.70;;;;;;4994687;28;20184;-55
2020/12/16 11:50:46;;;;;;;45.75;27.27;;;9.10;93.60;;;;;;4999652;28;20117;-52
2020/12/16 11:53:12;;;;;;;38.17;23.55;;;9.10;93.40;;;;;;4999332;28;20081;-52
2020/12/16 11:55:38;;;;;;;38.78;26.23;;;9.10;93.50;;;;;;5000203;28;20057;-52
2020/12/16 11:58:24;;;;;;;37.70;22.83;;;9.10;93.30;;;;;;4997078;28;20121;-53
2020/12/16 12:00:49;;;;;;;34.35;22.23;;;9.10;93.40;;;;;;4995524;28;20042;-53
2020/12/16 12:03:35;;;;;;;33.35;22.08;;;9.10;93.20;;;;;;4991627;28;20042;-53
2020/12/16 12:06:21;;;;;;;30.50;20.80;;;9.10;93.30;;;;;;4994493;28;20054;-51
2020/12/16 12:08:47;;;;;;;31.95;21.20;;;9.10;93.60;;;;;;4995905;28;20061;-52
2020/12/16 12:11:14;;;;;;;29.80;20.98;;;9.10;93.70;;;;;;4995521;28;20070;-52
2020/12/16 12:13:40;;;;;;;32.40;20.83;;;9.10;93.60;;;;;;4992585;28;20034;-54
2020/12/16 12:16:09;;;;;;;30.60;21.50;;;9.10;93.50;;;;;;4994933;28;20044;-57
2020/12/16 12:18:55;;;;;;;29.33;20.48;;;9.20;93.40;;;;;;4990624;28;20049;-52
2020/12/16 12:21:20;;;;;;;28.38;19.40;;;9.20;93.60;;;;;;4997896;28;20057;-54
2020/12/16 12:23:46;;;;;;;32.55;20.65;;;9.30;93.50;;;;;;4991697;28;20403;-54
2020/12/16 12:26:31;;;;;;;30.02;20.25;;;9.40;93.20;;;;;;5000680;28;20100;-52
2020/12/16 12:28:58;;;;;;;30.15;19.63;;;9.40;93.10;;;;;;4994642;28;20096;-55
2020/12/16 12:31:23;;;;;;;28.75;19.50;;;9.50;92.70;;;;;;4992032;28;20062;-52
2020/12/16 12:34:09;;;;;;;29.05;19.60;;;9.50;93.00;;;;;;4998691;28;20046;-54
2020/12/16 12:36:55;;;;;;;30.48;20.80;;;9.50;93.10;;;;;;4998949;28;20502;-52
2020/12/16 12:39:21;;;;;;;29.30;19.55;;;9.50;93.00;;;;;;4992679;28;20241;-52
2020/12/16 12:41:46;;;;;;;32.65;19.42;;;9.60;92.80;;;;;;4999663;28;20033;-54
2020/12/16 12:44:12;;;;;;;30.65;20.30;;;9.60;92.60;;;;;;5004959;28;20049;-53
2020/12/16 12:46:38;;;;;;;28.27;19.23;;;9.60;92.80;;;;;;5007891;28;20036;-52
2020/12/16 12:49:04;;;;;;;31.98;21.02;;;9.60;92.80;;;;;;4999416;28;20046;-54
2020/12/16 12:51:30;;;;;;;28.55;19.42;;;9.60;92.90;;;;;;5006585;28;20050;-54
2020/12/16 12:53:58;;;;;;;28.40;19.27;;;9.60;93.00;;;;;;5000018;28;20030;-55
2020/12/16 12:56:44;;;;;;;28.00;19.70;;;9.60;92.90;;;;;;5001803;28;20034;-55
2020/12/16 12:59:29;;;;;;;29.17;18.52;;;9.70;92.90;;;;;;4990471;28;20499;-53
2020/12/16 13:01:55;;;;;;;27.80;19.80;;;9.70;92.80;;;;;;4992053;28;20076;-52
2020/12/16 13:04:41;;;;;;;29.50;20.10;;;9.70;92.90;;;;;;4986215;28;20066;-56